createdAt,value
2019-05-02T00:01:30.992Z,47.60
2019-05-02T00:03:59.285Z,45.20
2019-05-02T00:06:27.333Z,47.50
2019-05-02T00:08:55.982Z,46.63
2019-05-02T00:11:23.724Z,47.90
2019-05-02T00:13:52.944Z,46.70
2019-05-02T00:16:22.145Z,45.43
2019-05-02T00:18:49.781Z,47.03
2019-05-02T00:21:17.935Z,47.17
2019-05-02T00:23:45.852Z,50.70
2019-05-02T00:26:14.528Z,47.80
2019-05-02T00:28:48.017Z,49.43
2019-05-02T00:31:13.104Z,45.93
2019-05-02T00:33:41.314Z,51.57
2019-05-02T00:36:09.832Z,48.07
2019-05-02T00:38:38.352Z,50.53
2019-05-02T00:41:07.266Z,47.63
2019-05-02T00:43:36.417Z,52.17
2019-05-02T00:46:05.258Z,48.27
2019-05-02T00:48:41.335Z,50.93
2019-05-02T00:51:09.645Z,52.43
2019-05-02T00:53:37.871Z,53.97
2019-05-02T00:56:09.129Z,50.80
2019-05-02T00:58:35.892Z,49.53
2019-05-02T01:01:29.707Z,50.53
2019-05-02T01:04:00.776Z,50.73
2019-05-02T01:06:29.147Z,51.40
2019-05-02T01:08:57.237Z,53.30
2019-05-02T01:11:28.210Z,48.83
2019-05-02T01:13:57.594Z,49.37
2019-05-02T01:16:25.336Z,49.53
2019-05-02T01:18:53.449Z,52.50
2019-05-02T01:21:21.728Z,54.40
2019-05-02T01:23:49.712Z,48.23
2019-05-02T01:26:17.938Z,49.83
2019-05-02T01:28:55.713Z,54.80
2019-05-02T01:31:30.361Z,48.83
2019-05-02T01:34:13.098Z,52.23
2019-05-02T01:37:01.714Z,60.70
2019-05-02T01:39:29.641Z,62.30
2019-05-02T01:42:00.071Z,63.47
2019-05-02T01:44:31.058Z,70.90
2019-05-02T01:46:58.710Z,58.33
2019-05-02T01:49:26.734Z,65.17
2019-05-02T01:51:54.948Z,58.40
2019-05-02T01:54:23.246Z,59.37
2019-05-02T01:56:51.332Z,61.10
2019-05-02T01:59:19.026Z,58.53
2019-05-02T02:01:46.668Z,59.70
2019-05-02T02:04:16.288Z,60.47
2019-05-02T02:06:45.200Z,54.27
2019-05-02T02:09:13.482Z,56.43
2019-05-02T02:11:41.719Z,56.07
2019-05-02T02:14:12.892Z,58.47
2019-05-02T02:16:40.529Z,58.87
2019-05-02T02:19:14.952Z,57.03
2019-05-02T02:21:49.455Z,56.83
2019-05-02T02:24:25.162Z,53.23
2019-05-02T02:26:52.019Z,58.20
2019-05-02T02:29:20.295Z,59.07
2019-05-02T02:31:48.682Z,56.27
2019-05-02T02:34:21.568Z,59.37
2019-05-02T02:36:47.262Z,57.53
2019-05-02T02:39:17.146Z,59.77
2019-05-02T02:41:51.845Z,53.87
2019-05-02T02:44:33.518Z,56.67
2019-05-02T02:46:59.562Z,55.00
2019-05-02T02:49:28.172Z,63.00
2019-05-02T02:51:57.802Z,59.17
2019-05-02T02:54:25.768Z,55.20
2019-05-02T02:56:53.712Z,58.07
2019-05-02T02:59:26.181Z,58.00
2019-05-02T03:01:51.149Z,59.13
2019-05-02T03:04:19.752Z,59.20
2019-05-02T03:06:47.974Z,59.27
2019-05-02T03:09:20.132Z,56.37
2019-05-02T03:12:04.768Z,55.73
2019-05-02T03:14:33.956Z,58.23
2019-05-02T03:17:01.722Z,55.90
2019-05-02T03:19:30.347Z,58.37
2019-05-02T03:22:03.763Z,56.47
2019-05-02T03:24:28.049Z,59.10
2019-05-02T03:26:57.938Z,61.33
2019-05-02T03:29:25.678Z,66.00
2019-05-02T03:32:12.436Z,67.53
2019-05-02T03:34:23.514Z,60.77
2019-05-02T03:36:51.280Z,64.03
2019-05-02T03:39:19.731Z,59.07
2019-05-02T03:41:47.417Z,62.77
2019-05-02T03:44:24.666Z,59.87
2019-05-02T03:46:44.760Z,60.23
2019-05-02T03:49:12.960Z,61.50
2019-05-02T03:51:40.655Z,61.37
2019-05-02T03:54:10.391Z,62.70
2019-05-02T03:56:44.918Z,56.87
2019-05-02T03:59:09.514Z,63.10
2019-05-02T04:01:41.200Z,58.80
2019-05-02T04:04:14.105Z,58.47
2019-05-02T04:06:39.592Z,63.00
2019-05-02T04:09:07.808Z,62.90
2019-05-02T04:11:39.106Z,62.47
2019-05-02T04:14:15.141Z,62.80
2019-05-02T04:16:36.809Z,62.87
2019-05-02T04:19:07.563Z,61.50
2019-05-02T04:21:35.830Z,66.30
2019-05-02T04:24:12.920Z,65.97
2019-05-02T04:26:34.389Z,68.87
2019-05-02T04:29:02.515Z,62.10
2019-05-02T04:31:33.640Z,65.20
2019-05-02T04:34:00.431Z,61.10
2019-05-02T04:36:28.403Z,65.17
2019-05-02T04:38:59.325Z,63.30
2019-05-02T04:41:31.681Z,59.10
2019-05-02T04:43:58.795Z,65.20
2019-05-02T04:46:30.155Z,71.00
2019-05-02T04:48:54.705Z,68.90
2019-05-02T04:51:22.452Z,65.43
2019-05-02T04:53:50.429Z,63.33
2019-05-02T04:56:18.809Z,71.03
2019-05-02T04:58:49.344Z,70.87
2019-05-02T05:01:17.448Z,69.83
2019-05-02T05:03:49.278Z,68.70
2019-05-02T05:06:15.414Z,71.50
2019-05-02T05:08:43.546Z,69.10
2019-05-02T05:11:13.942Z,74.17
2019-05-02T05:13:41.493Z,67.83
2019-05-02T05:16:15.131Z,72.73
2019-05-02T05:18:38.945Z,76.50
2019-05-02T05:21:10.253Z,89.30
2019-05-02T05:24:01.315Z,91.40
2019-05-02T05:26:33.800Z,83.97
2019-05-02T05:29:01.194Z,80.50
2019-05-02T05:31:29.400Z,75.13
2019-05-02T05:33:57.981Z,76.80
2019-05-02T05:36:32.622Z,77.73
2019-05-02T05:38:55.454Z,76.30
2019-05-02T05:41:23.517Z,77.37
2019-05-02T05:43:53.604Z,86.73
2019-05-02T05:46:21.275Z,78.37
2019-05-02T05:48:49.284Z,79.33
2019-05-02T05:51:20.522Z,73.90
2019-05-02T05:53:47.890Z,72.40
2019-05-02T05:56:18.029Z,84.73
2019-05-02T05:58:48.011Z,81.63
2019-05-02T06:01:17.683Z,88.33
2019-05-02T06:03:47.367Z,75.07
2019-05-02T06:06:22.358Z,75.13
2019-05-02T06:08:49.139Z,72.37
2019-05-02T06:11:19.969Z,70.43
2019-05-02T06:13:48.880Z,71.70
2019-05-02T06:16:16.628Z,75.90
2019-05-02T06:18:44.476Z,68.77
2019-05-02T06:21:12.944Z,71.07
2019-05-02T06:23:41.553Z,68.33
2019-05-02T06:26:13.611Z,80.20
2019-05-02T06:28:41.651Z,77.63
2019-05-02T06:31:09.223Z,78.60
2019-05-02T06:33:37.293Z,79.50
2019-05-02T06:36:05.528Z,82.63
2019-05-02T06:38:33.632Z,75.40
2019-05-02T06:41:02.116Z,77.83
2019-05-02T06:43:30.131Z,81.37
2019-05-02T06:45:57.880Z,76.50
2019-05-02T06:48:25.860Z,75.80
2019-05-02T06:50:53.899Z,74.10
2019-05-02T06:53:22.265Z,80.27
2019-05-02T06:55:49.948Z,87.53
2019-05-02T06:58:18.130Z,80.77
2019-05-02T07:00:57.692Z,84.57
2019-05-02T07:03:16.469Z,90.00
2019-05-02T07:05:44.689Z,89.00
2019-05-02T07:08:14.037Z,84.90
2019-05-02T07:10:44.696Z,77.07
2019-05-02T07:13:14.927Z,84.83
2019-05-02T07:15:54.397Z,85.07
2019-05-02T07:18:22.552Z,84.97
2019-05-02T07:20:50.244Z,79.40
2019-05-02T07:23:18.470Z,79.60
2019-05-02T07:25:47.971Z,82.97
2019-05-02T07:28:16.115Z,83.50
2019-05-02T07:30:44.089Z,82.80
2019-05-02T07:33:12.349Z,74.50
2019-05-02T07:35:40.980Z,73.73
2019-05-02T07:38:09.234Z,79.90
2019-05-02T07:40:37.946Z,74.47
2019-05-02T07:43:05.620Z,80.87
2019-05-02T07:45:33.749Z,69.13
2019-05-02T07:48:02.746Z,64.17
2019-05-02T07:50:30.666Z,67.67
2019-05-02T07:52:58.921Z,71.17
2019-05-02T08:09:51.677Z,60.73
2019-05-02T08:12:19.645Z,54.17
2019-05-02T08:14:47.762Z,58.77
2019-05-02T08:17:17.241Z,61.40
2019-05-02T08:19:45.565Z,56.57
2019-05-02T08:22:14.840Z,56.70
2019-05-02T08:24:43.367Z,59.50
2019-05-02T08:27:39.696Z,55.73
2019-05-02T08:30:09.896Z,57.40
2019-05-02T08:32:37.866Z,58.40
2019-05-02T08:35:06.057Z,59.87
2019-05-02T08:37:35.425Z,59.50
2019-05-02T08:40:05.500Z,58.23
2019-05-02T08:42:34.156Z,60.30
2019-05-02T08:45:03.183Z,64.30
2019-05-02T08:47:31.273Z,63.07
2019-05-02T08:49:58.941Z,62.97
2019-05-02T08:52:26.972Z,65.47
2019-05-02T08:54:54.754Z,63.70
2019-05-02T08:57:23.860Z,59.00
2019-05-02T08:59:55.382Z,52.87
2019-05-02T09:02:26.050Z,55.03
2019-05-02T09:04:58.183Z,61.03
2019-05-02T09:07:20.633Z,56.87
2019-05-02T09:09:48.397Z,64.37
2019-05-02T09:12:16.048Z,57.33
2019-05-02T09:14:44.213Z,58.07
2019-05-02T09:17:16.412Z,62.07
2019-05-02T09:19:42.954Z,56.30
2019-05-02T09:22:13.172Z,59.90
2019-05-02T09:24:42.969Z,64.30
2019-05-02T09:27:11.844Z,58.37
2019-05-02T09:29:42.468Z,59.67
2019-05-02T09:32:09.990Z,58.47
2019-05-02T09:34:37.874Z,55.80
2019-05-02T09:37:08.701Z,61.97
2019-05-02T09:39:36.709Z,57.37
2019-05-02T09:42:06.708Z,58.57
2019-05-02T09:44:34.444Z,60.70
2019-05-02T09:47:02.477Z,60.00
2019-05-02T09:49:32.343Z,63.00
2019-05-02T09:52:01.291Z,59.87
2019-05-02T09:54:29.501Z,57.17
2019-05-02T09:56:57.524Z,61.83
2019-05-02T09:59:33.087Z,57.93
2019-05-02T10:02:03.170Z,62.00
2019-05-02T10:04:32.588Z,60.33
2019-05-02T10:07:02.424Z,55.43
2019-05-02T10:09:32.275Z,60.43
2019-05-02T10:12:02.002Z,61.73
2019-05-02T10:14:32.834Z,60.53
2019-05-02T10:17:03.077Z,55.80
2019-05-02T10:19:32.532Z,56.93
2019-05-02T10:22:01.927Z,58.67
2019-05-02T10:24:29.837Z,60.00
2019-05-02T10:27:04.197Z,59.50
2019-05-02T10:29:28.381Z,56.97
2019-05-02T10:31:57.105Z,65.03
2019-05-02T10:34:25.146Z,56.00
2019-05-02T10:36:58.513Z,59.87
2019-05-02T10:39:28.441Z,56.13
2019-05-02T10:41:57.513Z,57.43
2019-05-02T10:44:27.231Z,52.43
2019-05-02T10:46:57.347Z,49.93
2019-05-02T10:49:37.670Z,60.37
2019-05-02T10:52:05.544Z,56.00
2019-05-02T10:54:37.312Z,52.17
2019-05-02T10:57:02.924Z,50.93
2019-05-02T10:59:32.631Z,51.50
2019-05-02T11:02:25.622Z,47.00
2019-05-02T11:04:56.670Z,47.07
2019-05-02T11:07:26.358Z,53.93
2019-05-02T11:09:57.200Z,51.80
2019-05-02T11:12:44.453Z,45.60
2019-05-02T11:15:42.898Z,46.00
2019-05-02T11:18:12.645Z,48.30
2019-05-02T11:20:42.064Z,47.40
2019-05-02T11:23:10.179Z,46.13
2019-05-02T11:25:38.430Z,45.47
2019-05-02T11:28:07.225Z,43.57
2019-05-02T11:30:36.911Z,45.40
2019-05-02T11:33:04.556Z,41.37
2019-05-02T11:35:32.746Z,43.90
2019-05-02T11:38:02.502Z,47.03
2019-05-02T11:40:32.134Z,46.63
2019-05-02T11:43:02.792Z,44.13
2019-05-02T11:45:32.217Z,44.30
2019-05-02T11:48:01.798Z,43.37
2019-05-02T11:50:31.884Z,42.70
2019-05-02T11:52:58.773Z,43.10
2019-05-02T11:55:29.041Z,42.87
2019-05-02T11:58:00.819Z,43.57
2019-05-02T12:00:26.440Z,36.90
2019-05-02T12:03:02.364Z,40.87
2019-05-02T12:05:39.317Z,41.43
2019-05-02T12:08:08.120Z,45.13
2019-05-02T12:10:36.883Z,40.63
2019-05-02T12:13:06.550Z,37.43
2019-05-02T12:15:34.274Z,38.67
2019-05-02T12:18:02.578Z,40.93
2019-05-02T12:20:33.971Z,37.50
2019-05-02T12:23:02.085Z,38.07
2019-05-02T12:25:29.772Z,44.23
2019-05-02T12:27:58.100Z,41.03
2019-05-02T12:30:28.906Z,41.83
2019-05-02T12:32:55.601Z,43.70
2019-05-02T12:35:23.623Z,40.47
2019-05-02T12:37:55.112Z,35.10
2019-05-02T12:40:21.797Z,38.37
2019-05-02T12:42:49.491Z,36.30
2019-05-02T12:45:17.121Z,34.87
2019-05-02T12:47:44.893Z,33.00
2019-05-02T12:50:13.657Z,30.23
2019-05-02T12:52:42.879Z,33.70
2019-05-02T12:55:12.713Z,29.77
2019-05-02T12:57:40.241Z,31.80
2019-05-02T13:00:09.473Z,35.60
2019-05-02T13:02:48.393Z,34.33
2019-05-02T13:05:16.125Z,33.97
2019-05-02T13:07:50.609Z,31.33
2019-05-02T13:10:17.019Z,32.63
2019-05-02T13:12:45.025Z,27.60
2019-05-02T13:15:13.731Z,30.20
2019-05-02T13:17:43.923Z,31.20
2019-05-02T13:20:13.038Z,25.00
2019-05-02T13:22:56.324Z,27.20
2019-05-02T13:25:27.277Z,22.60
2019-05-02T13:27:54.500Z,26.20
2019-05-02T13:30:46.215Z,26.40
2019-05-02T13:33:13.788Z,24.60
2019-05-02T13:35:45.024Z,23.17
2019-05-02T13:38:13.877Z,21.43
2019-05-02T13:40:43.786Z,23.03
2019-05-02T13:43:12.512Z,27.43
2019-05-02T13:45:48.132Z,28.70
2019-05-02T13:48:16.360Z,27.80
2019-05-02T13:50:44.681Z,31.70
2019-05-02T13:53:13.083Z,25.90
2019-05-02T13:55:46.173Z,24.73
2019-05-02T13:58:14.070Z,24.97
2019-05-02T14:00:45.840Z,23.30
2019-05-02T14:03:13.984Z,24.40
2019-05-02T14:05:49.146Z,23.23
2019-05-02T14:08:27.414Z,25.60
2019-05-02T14:11:01.856Z,22.53
2019-05-02T14:13:31.628Z,22.53
2019-05-02T14:15:59.544Z,27.27
2019-05-02T14:18:28.873Z,24.90
2019-05-02T14:20:56.581Z,23.10
2019-05-02T14:23:24.221Z,31.60
2019-05-02T14:25:52.139Z,23.63
2019-05-02T14:28:22.451Z,25.33
2019-05-02T14:30:52.503Z,30.83
2019-05-02T14:33:23.499Z,26.00
2019-05-02T14:35:52.544Z,27.00
2019-05-02T14:38:22.082Z,23.23
2019-05-02T14:41:03.006Z,19.70
2019-05-02T14:43:49.139Z,23.63
2019-05-02T14:46:18.032Z,30.30
2019-05-02T14:48:46.065Z,23.40
2019-05-02T14:51:16.769Z,25.10
2019-05-02T14:53:45.032Z,25.53
2019-05-02T14:56:17.876Z,25.80
2019-05-02T14:58:45.773Z,23.00
2019-05-02T15:01:17.210Z,21.63
2019-05-02T15:03:43.125Z,25.30
2019-05-02T15:06:11.685Z,21.70
2019-05-02T15:08:42.043Z,23.40
2019-05-02T15:11:09.676Z,22.97
2019-05-02T15:13:40.945Z,24.73
2019-05-02T15:16:10.517Z,28.57
2019-05-02T15:18:37.414Z,25.40
2019-05-02T15:21:12.159Z,24.97
2019-05-02T15:23:34.501Z,25.33
2019-05-02T15:26:02.743Z,28.03
2019-05-02T15:28:37.382Z,32.43
2019-05-02T15:31:06.240Z,31.83
2019-05-02T15:33:37.209Z,32.57
2019-05-02T15:36:07.507Z,34.87
2019-05-02T15:38:37.325Z,33.17
2019-05-02T15:41:09.460Z,37.10
2019-05-02T15:43:34.687Z,34.33
2019-05-02T15:46:02.529Z,37.30
2019-05-02T15:48:32.254Z,31.03
2019-05-02T15:51:04.525Z,34.93
2019-05-02T15:53:39.155Z,37.80
2019-05-02T15:56:04.715Z,35.67
2019-05-02T15:58:32.862Z,37.63
2019-05-02T16:01:14.007Z,31.27
2019-05-02T16:03:45.887Z,35.00
2019-05-02T16:06:16.349Z,32.63
2019-05-02T16:08:48.006Z,36.20
2019-05-02T16:11:17.045Z,35.50
2019-05-02T16:13:47.023Z,37.20
2019-05-02T16:16:15.553Z,34.10
2019-05-02T16:18:43.604Z,35.33
2019-05-02T16:21:18.444Z,35.13
2019-05-02T16:24:10.842Z,45.40
2019-05-02T16:26:37.106Z,30.07
2019-05-02T16:29:03.881Z,32.30
2019-05-02T16:31:33.676Z,24.57
2019-05-02T16:34:02.402Z,23.77
2019-05-02T16:36:35.816Z,22.57
2019-05-02T16:39:05.154Z,19.73
2019-05-02T16:41:30.376Z,27.20
2019-05-02T16:43:58.121Z,31.23
2019-05-02T16:46:27.423Z,45.13
2019-05-02T16:48:55.098Z,38.73
2019-05-02T16:51:30.746Z,42.40
2019-05-02T16:53:56.149Z,90.30
2019-05-02T16:56:22.749Z,49.30
2019-05-02T16:58:52.199Z,49.90
2019-05-02T17:01:27.122Z,47.13
2019-05-02T17:03:49.459Z,47.17
2019-05-02T17:06:22.396Z,51.50
2019-05-02T17:08:58.792Z,49.30
2019-05-02T17:11:34.151Z,53.03
2019-05-02T17:14:02.306Z,51.50
2019-05-02T17:16:31.573Z,53.03
2019-05-02T17:19:01.553Z,86.50
2019-05-02T17:21:33.709Z,66.13
2019-05-02T17:23:58.669Z,51.70
2019-05-02T17:26:26.632Z,58.07
2019-05-02T17:28:55.021Z,56.93
2019-05-02T17:31:23.226Z,56.03
2019-05-02T17:33:52.934Z,57.70
2019-05-02T17:36:28.318Z,50.97
2019-05-02T17:38:54.260Z,45.27
2019-05-02T17:41:22.327Z,51.20
2019-05-02T17:43:50.176Z,51.50
2019-05-02T17:46:19.959Z,49.27
2019-05-02T17:48:47.727Z,48.90
2019-05-02T17:51:28.211Z,47.10
2019-05-02T17:53:53.611Z,46.70
2019-05-02T17:56:23.217Z,47.20
2019-05-02T17:58:56.582Z,42.60
2019-05-02T18:01:32.767Z,47.17
2019-05-02T18:03:57.529Z,42.37
2019-05-02T18:06:33.004Z,42.73
2019-05-02T18:08:55.370Z,46.80
2019-05-02T18:11:23.485Z,40.33
2019-05-02T18:13:51.833Z,40.30
2019-05-02T18:16:21.697Z,37.97
2019-05-02T18:18:52.029Z,39.00
2019-05-02T18:21:25.459Z,38.97
2019-05-02T18:23:49.249Z,38.07
2019-05-02T18:26:17.491Z,33.40
2019-05-02T18:28:49.189Z,33.27
2019-05-02T18:31:15.407Z,34.37
2019-05-02T18:33:43.652Z,32.77
2019-05-02T18:36:11.829Z,33.30
2019-05-02T18:38:41.616Z,32.80
2019-05-02T18:41:09.339Z,34.00
2019-05-02T18:43:43.550Z,33.63
2019-05-02T18:46:07.764Z,36.83
2019-05-02T18:48:40.976Z,33.80
2019-05-02T18:51:06.737Z,35.13
2019-05-02T18:53:34.744Z,33.60
2019-05-02T18:56:03.630Z,31.93
2019-05-02T18:58:32.007Z,32.83
2019-05-02T19:00:59.937Z,35.30
2019-05-02T19:03:27.585Z,36.90
2019-05-02T19:05:57.252Z,35.40
2019-05-02T19:08:31.193Z,30.13
2019-05-02T19:11:05.353Z,36.87
2019-05-02T19:13:25.309Z,36.77
2019-05-02T19:15:53.512Z,33.20
2019-05-02T19:18:22.713Z,37.10
2019-05-02T19:20:59.781Z,36.57
2019-05-02T19:23:27.987Z,38.40
2019-05-02T19:25:55.629Z,38.10
2019-05-02T19:28:29.154Z,38.40
2019-05-02T19:30:57.277Z,39.50
2019-05-02T19:33:26.136Z,44.43
2019-05-02T19:35:54.451Z,36.43
2019-05-02T19:38:26.151Z,39.03
2019-05-02T19:40:52.385Z,38.90
2019-05-02T19:43:20.300Z,38.63
2019-05-02T19:45:52.588Z,37.70
2019-05-02T19:48:22.737Z,43.97
2019-05-02T19:50:51.826Z,44.70
2019-05-02T19:53:22.662Z,43.33
2019-05-02T19:55:51.864Z,41.73
2019-05-02T19:58:19.920Z,38.03
2019-05-02T20:00:48.349Z,38.50
2019-05-02T20:03:21.722Z,38.97
2019-05-02T20:05:48.414Z,41.17
2019-05-02T20:08:21.412Z,40.57
2019-05-02T20:10:49.439Z,39.60
2019-05-02T20:13:15.651Z,44.00
2019-05-02T20:15:49.316Z,40.30
2019-05-02T20:18:17.860Z,40.03
2019-05-02T20:20:52.096Z,41.07
2019-05-02T20:23:28.588Z,40.80
2019-05-02T20:25:52.108Z,41.90
2019-05-02T20:28:21.314Z,41.23
2019-05-02T20:52:32.407Z,44.23
2019-05-02T20:55:01.842Z,43.37
2019-05-02T20:57:31.662Z,44.10
2019-05-02T20:59:59.304Z,40.17
2019-05-02T21:02:26.968Z,47.53
2019-05-02T21:04:55.310Z,44.47
2019-05-02T21:07:42.411Z,46.73
2019-05-02T21:10:16.087Z,47.73
2019-05-02T21:12:44.794Z,48.27
2019-05-02T21:15:13.484Z,42.20
2019-05-02T21:17:42.181Z,38.47
2019-05-02T21:20:12.323Z,34.03
2019-05-02T21:22:42.059Z,32.30
2019-05-02T21:25:09.860Z,32.80
2019-05-02T21:27:38.196Z,30.57
2019-05-02T21:30:06.768Z,34.13
2019-05-02T21:32:35.071Z,33.93
2019-05-02T21:35:02.921Z,32.30
2019-05-02T21:37:31.946Z,33.70
2019-05-02T21:40:02.627Z,36.83
2019-05-02T21:42:31.871Z,32.10
2019-05-02T21:44:59.968Z,35.40
2019-05-02T21:47:28.373Z,36.80
2019-05-02T21:50:13.693Z,29.57
2019-05-02T21:52:45.993Z,28.97
2019-05-02T21:55:24.369Z,36.20
2019-05-02T21:57:52.332Z,28.73
2019-05-02T22:00:42.182Z,27.07
2019-05-02T22:03:12.492Z,28.80
2019-05-02T22:05:40.184Z,30.03
2019-05-02T22:08:08.805Z,28.07
2019-05-02T22:10:36.841Z,28.30
2019-05-02T22:13:05.210Z,24.10
2019-05-02T22:15:33.203Z,26.07
2019-05-02T22:18:01.698Z,25.10
2019-05-02T22:20:29.821Z,26.47
2019-05-02T22:22:58.072Z,26.57
2019-05-02T22:25:26.125Z,25.10
2019-05-02T22:27:54.333Z,24.60
2019-05-02T22:30:22.940Z,21.63
2019-05-02T22:32:51.699Z,23.37
2019-05-02T22:35:21.689Z,20.10
2019-05-02T22:37:51.444Z,21.27
2019-05-02T22:40:19.248Z,23.83
2019-05-02T22:42:47.043Z,20.90
2019-05-02T22:45:15.261Z,20.23
2019-05-02T22:47:43.339Z,17.37
2019-05-02T22:50:13.930Z,16.63
2019-05-02T22:52:41.664Z,19.10
2019-05-02T22:55:09.676Z,20.97
2019-05-02T22:57:37.699Z,18.40
2019-05-02T23:00:06.108Z,23.10
2019-05-02T23:02:34.175Z,22.20
2019-05-02T23:05:02.181Z,15.43
2019-05-02T23:07:30.661Z,14.40
2019-05-02T23:09:59.078Z,18.20
2019-05-02T23:12:27.057Z,17.37
2019-05-02T23:14:55.024Z,18.20
2019-05-02T23:17:23.358Z,20.83
2019-05-02T23:19:52.776Z,16.47
2019-05-02T23:22:21.813Z,13.43
2019-05-02T23:25:14.152Z,19.70
2019-05-02T23:27:47.985Z,17.13
2019-05-02T23:30:18.276Z,18.00
2019-05-02T23:32:46.572Z,13.80
2019-05-02T23:35:15.174Z,14.53
2019-05-02T23:37:43.276Z,12.63
2019-05-02T23:40:12.484Z,17.07
2019-05-02T23:42:41.722Z,17.90
2019-05-02T23:45:11.962Z,14.40
2019-05-02T23:47:39.673Z,14.50
2019-05-02T23:50:07.724Z,17.53
2019-05-02T23:52:36.029Z,16.03
2019-05-02T23:55:03.778Z,14.57
2019-05-02T23:57:32.465Z,16.33
